Orange City, Florida
Current Conditions -  °F | °C
As of 3:15 PM on Thursday 23 Oct 2014 (Local Time) from KDED Reporting Station
Few Clouds Few Clouds  
Wind Chill: 75°   Ceiling: Unl
Heat Index: 75°   Visibility: 10mi
Dew Point: 55°   Wind: 8mph
Humidity: 50%   Direction: 70°ENE
Pressure: 29.98"   Gusts: NA
Location:  28.95°N, 81.3°W
Report Text: KDED 231915Z AUTO 07007KT 10SM FEW049 24/13 A2998 RMK AO1
Loading
Personal Weather Stations






























Interactive Weather Map
Tropical Storm Tracking
New forecast layout! Learn more

10-Day Weather Forecast

Advertisements
Track Severe Weather on mobile